Nearby METAR Reports

 

KCOS - Colorado Springs, Colorado, USA
Distance from station: S 6mi, 9km
Updated: 01/22/2020 1:54pm
Partly cloudy
Partly cloudy
 Wind from WNW
Wind: WNW 8 mph , 13 km/h, Gust: 20 mph , 31 km/h
Temperature: 52°F , 11°C
Dew Point: 10°F , -12°C
Humidity: 19%
Barometer: 29.85 inHg , 1010.8 hPa
Clouds: Partly cloudy
Visibility: 10 miles , 16 km
Cloud details: Few Clouds 12000 ft
Partly cloudy 23000 ft
2020/01/22 20:54 KCOS 222054Z 30007G17KT 10SM FEW120 SCT230 11/M12 A2985 RMK AO2 SLP081 T01111122 58017
KAFF - Usaf Academy/Cos, Colorado, USA
Distance from station: NW 7mi, 12km
Updated: 01/22/2020 1:58pm
Few Clouds
Few Clouds
 Wind from NW
Wind: NW 8 mph , 13 km/h
Temperature: 50°F , 10°C
Wind Chill: 47°F , 8°C
Dew Point: 7°F , -14°C
Humidity: 17%
Barometer: 29.82 inHg , 1009.8 hPa
Clouds: Few Clouds
Visibility: 10 miles , 16 km
Cloud details: Few Clouds 8500 ft
2020/01/22 20:58 KAFF 222058Z AUTO 32007KT 10SM FEW085 10/M14 A2982 RMK AO2 SLPNO T00961136
 
KFLY - Co Spngs Meadow, Colorado, USA
Distance from station: ENE 8mi, 13km
Updated: 01/22/2020 2:35pm
Clear
Clear
 Wind from NNW
Wind: NNW 15 mph , 24 km/h, Gust: 21 mph , 33 km/h
Temperature: 48°F , 9°C
Wind Chill: 42°F , 6°C
Dew Point: 5°F , -15°C
Humidity: 17%
Barometer: 29.87 inHg , 1011.5 hPa
Clouds: Clear
Visibility: 10 miles , 16 km
2020/01/22 21:35 KFLY 222135Z AUTO 34013G18KT 300V360 10SM CLR 09/M15 A2987 RMK AO2 T00921146
KFCS - Fort Carson, Colorado, USA
Distance from station: S 17mi, 27km
Updated: 01/22/2020 1:58pm
Clear
Clear
 Wind from WSW
Wind: WSW 6 mph , 9 km/h
Temperature: 52°F , 11°C
Dew Point: 12°F , -11°C
Humidity: 20%
Barometer: 29.82 inHg , 1009.8 hPa
Clouds: Clear
Visibility: 10 miles , 16 km
2020/01/22 20:58 KFCS 222058Z AUTO 24005KT 10SM CLR 11/M11 A2982 RMK AO2 SLPNO T01131109 $
 
KMNH - Monument/Elbert, Colorado, USA
Distance from station: N 22mi, 35km
Updated: 01/22/2020 2:30pm
Clear
Clear
 Wind from NNW
Wind: NNW 16 mph , 26 km/h, Gust: 24 mph , 39 km/h
Temperature: 43°F , 6°C
Wind Chill: 35°F , 2°C
Dew Point: 10°F , -12°C
Humidity: 26%
Barometer: 29.87 inHg , 1011.5 hPa
Clouds: Clear
Visibility: 10 miles , 16 km
2020/01/22 21:30 KMNH 222130Z AUTO 33014G21KT 10SM CLR 06/M12 A2987 RMK AO2
K1V6 - Canon City, Colorado, USA
Distance from station: SSW 39mi, 62km
Updated: 01/22/2020 2:30pm
Clear
Clear
 Wind from NW
Wind: NW 18 mph , 30 km/h, Gust: 28 mph , 44 km/h
Temperature: 57°F , 14°C
Dew Point: 12°F , -11°C
Humidity: 17%
Barometer: 29.84 inHg , 1010.5 hPa
Clouds: Clear
Visibility: 10 miles , 16 km
2020/01/22 21:30 K1V6 222130Z AUTO 31016G24KT 10SM CLR 14/M11 A2984 RMK AO2
 
KPUB - Pueblo, Colorado, USA
Distance from station: SSE 44mi, 71km
Updated: 01/22/2020 1:53pm
Clear
Clear
 Wind from WNW
Wind: WNW 15 mph , 24 km/h
Temperature: 57°F , 14°C
Dew Point: 14°F , -10°C
Humidity: 18%
Barometer: 29.83 inHg , 1010.2 hPa
Clouds: Clear
Visibility: 10 miles , 16 km
2020/01/22 20:53 KPUB 222053Z 29013KT 10SM CLR 14/M10 A2983 RMK AO2 SLP089 T01441100 58013
KAPA - Denver/Arapahoe, Colorado, USA
Distance from station: N 47mi, 75km
Updated: 01/22/2020 1:53pm
Mostly cloudy
Mostly cloudy
 Wind from NW
Wind: NW 14 mph , 22 km/h, Gust: 28 mph , 44 km/h
Temperature: 52°F , 11°C
Dew Point: 16°F , -9°C
Humidity: 24%
Barometer: 29.83 inHg , 1010.2 hPa
Clouds: Mostly cloudy
Visibility: 10 miles , 16 km
Cloud details: Few Clouds 8000 ft
Few Clouds 13000 ft
Mostly cloudy 20000 ft
2020/01/22 20:53 KAPA 222053Z 31012G24KT 10SM FEW080 FEW130 BKN200 11/M09 A2983 RMK AO2 SLP094 T01111094 56015